createdAt,value
2022-09-24T04:55:59.745Z,11.10
2022-09-24T04:58:27.007Z,11.20
2022-09-24T05:00:54.581Z,12.90
2022-09-24T05:03:21.386Z,11.10
2022-09-24T05:05:52.052Z,11.10
2022-09-24T05:08:19.068Z,11.10
2022-09-24T05:10:46.107Z,11.40
2022-09-24T05:28:52.130Z,11.30
2022-09-24T05:31:19.705Z,11.20
2022-09-24T05:33:46.554Z,11.20
2022-09-24T05:36:13.785Z,11.20
2022-09-24T05:38:43.312Z,11.20
2022-09-24T05:41:10.414Z,11.10
2022-09-24T05:43:38.054Z,11.40
2022-09-24T06:01:35.488Z,11.20
2022-09-24T06:04:07.877Z,11.40
2022-09-24T06:06:35.773Z,11.40
2022-09-24T06:09:03.151Z,10.00
2022-09-24T06:11:40.109Z,11.40
2022-09-24T06:14:10.718Z,11.50
2022-09-24T06:16:41.229Z,10.00
2022-09-24T06:37:24.856Z,11.90
2022-09-24T06:39:51.859Z,11.90
2022-09-24T06:42:20.469Z,12.00
2022-09-24T06:44:48.054Z,12.00
2022-09-24T06:47:15.249Z,12.00
2022-09-24T06:49:42.136Z,12.00
2022-09-24T06:52:09.126Z,12.10
2022-09-24T07:10:06.923Z,12.20
2022-09-24T07:12:36.144Z,12.70
2022-09-24T07:15:03.520Z,12.70
2022-09-24T07:17:33.943Z,12.80
2022-09-24T07:20:01.447Z,12.90
2022-09-24T07:22:28.845Z,13.00
2022-09-24T07:24:55.703Z,13.10
2022-09-24T07:53:16.266Z,14.10
2022-09-24T07:55:43.717Z,14.20
2022-09-24T07:58:13.169Z,14.20
2022-09-24T08:00:40.847Z,14.20
2022-09-24T08:03:08.101Z,14.30
2022-09-24T08:05:35.137Z,14.40
2022-09-24T08:08:27.742Z,14.40
2022-09-24T08:16:20.336Z,17.20
2022-09-24T08:18:50.765Z,15.10
2022-09-24T08:21:20.881Z,13.90
2022-09-24T08:23:51.491Z,14.60
2022-09-24T08:26:18.249Z,14.80
2022-09-24T08:28:48.221Z,14.90
2022-09-24T08:31:15.714Z,15.10
2022-09-24T08:36:52.582Z,15.50
2022-09-24T08:39:25.461Z,15.70
2022-09-24T08:42:04.111Z,16.00
2022-09-24T08:48:31.531Z,16.40
2022-09-24T08:51:02.858Z,16.80
2022-09-24T08:56:44.678Z,17.20
2022-09-24T08:59:30.158Z,17.20
2022-09-24T09:02:24.383Z,17.20
2022-09-24T09:05:10.112Z,17.30
2022-09-24T09:08:00.160Z,17.70
2022-09-24T09:10:40.656Z,17.40
2022-09-24T09:27:51.289Z,17.00
2022-09-24T09:30:21.307Z,17.10
2022-09-24T09:32:48.314Z,17.20
2022-09-24T09:35:19.597Z,17.20
2022-09-24T09:37:57.415Z,17.20
2022-09-24T09:40:32.103Z,17.30
2022-09-24T09:43:03.877Z,17.30
2022-09-24T11:08:45.671Z,19.40
2022-09-24T11:11:31.873Z,19.40
2022-09-24T11:14:15.937Z,19.60
2022-09-24T11:17:01.647Z,19.60
2022-09-24T11:19:56.752Z,19.60
2022-09-24T11:49:54.332Z,19.00
2022-09-24T11:52:31.231Z,18.90
2022-09-24T11:54:58.410Z,18.80
2022-09-24T11:57:29.820Z,18.90
2022-09-24T12:00:08.084Z,18.90
2022-09-24T12:02:45.557Z,18.90
2022-09-24T12:11:23.815Z,18.70
2022-09-24T12:14:17.239Z,18.70
2022-09-24T12:16:48.099Z,18.50
2022-09-24T12:19:31.335Z,17.60
2022-09-24T12:22:01.319Z,18.30
2022-09-24T12:24:33.766Z,18.20
2022-09-24T12:27:09.640Z,18.50
2022-09-24T12:36:00.916Z,18.20
2022-09-24T12:38:34.260Z,18.20
2022-09-24T12:41:56.194Z,18.10
2022-09-24T12:44:42.056Z,18.00
2022-09-24T12:47:24.095Z,18.10
2022-09-24T12:49:56.817Z,18.30
2022-09-24T12:57:41.969Z,18.20
2022-09-24T13:00:37.048Z,17.90
2022-09-24T13:03:06.142Z,17.90
2022-09-24T13:05:57.031Z,17.80
2022-09-24T13:08:25.636Z,17.80
2022-09-24T13:11:00.257Z,17.70
2022-09-24T13:13:30.180Z,17.50
2022-09-24T13:21:08.402Z,17.10
2022-09-24T13:23:38.186Z,16.90
2022-09-24T13:26:06.862Z,16.80
2022-09-24T13:28:48.772Z,16.80
2022-09-24T13:32:08.612Z,16.60
2022-09-24T13:34:39.592Z,16.60
2022-09-24T13:42:02.863Z,16.50
2022-09-24T13:44:52.661Z,16.60
2022-09-24T13:47:57.431Z,16.70
2022-09-24T13:51:36.547Z,17.30
2022-09-24T13:54:36.821Z,17.00
2022-09-24T13:57:45.643Z,17.10
2022-09-24T14:00:16.536Z,17.20
2022-09-24T14:05:38.137Z,17.00
2022-09-24T14:08:47.539Z,17.10
2022-09-24T14:11:36.074Z,16.90
2022-09-24T14:14:14.946Z,16.10
2022-09-24T14:16:42.225Z,16.70
2022-09-24T14:19:14.489Z,17.40
2022-09-24T14:21:52.709Z,16.70
2022-09-24T15:27:23.635Z,15.60
2022-09-24T15:29:50.628Z,15.60
2022-09-24T15:32:19.394Z,15.50
2022-09-24T15:34:47.284Z,15.40
2022-09-24T15:37:18.871Z,15.40
2022-09-24T15:39:49.888Z,15.40
2022-09-24T23:23:46.146Z,13.10
2022-09-24T23:26:17.039Z,13.10
2022-09-24T23:28:52.237Z,13.10
2022-09-24T23:31:24.938Z,13.10
2022-09-24T23:33:53.729Z,13.10
2022-09-24T23:58:22.016Z,13.10
